Asbury, Illinois
Current Conditions -  °F | °C
As of 5:55 PM on Tuesday 25 Nov 2014 (Local Time) from KCUL Reporting Station
Clear Clear  
Wind Chill: 27°   Ceiling: Unl
Heat Index: 32°   Visibility: 10mi
Dew Point: 28°   Wind: 5mph
Humidity: 87%   Direction: 360°N
Pressure: 30.19"   Gusts: NA
Location:  37.8866°N, 88.266°W
Report Text: KCUL 252355Z AUTO 36004KT 10SM CLR 00/M02 A3019 RMK AO2 T00001020 10053 21001
Loading
Personal Weather Stations






























Interactive Weather Map New forecast layout! Learn more

10-Day Weather Forecast

Advertisements
Track Severe Weather on mobile